createdAt,value
2018-09-18T00:00:32.860Z,88.40
2018-09-18T00:03:04.889Z,87.80
2018-09-18T00:05:37.495Z,87.70
2018-09-18T00:08:09.457Z,88.30
2018-09-18T00:10:41.348Z,88.30
2018-09-18T00:13:13.326Z,88.00
2018-09-18T00:15:45.833Z,87.80
2018-09-18T00:18:17.801Z,87.30
2018-09-18T00:20:49.886Z,87.60
2018-09-18T00:23:22.048Z,88.00
2018-09-18T00:25:53.884Z,87.40
2018-09-18T00:28:25.937Z,87.40
2018-09-18T00:30:57.690Z,87.60
2018-09-18T00:33:29.543Z,87.50
2018-09-18T00:36:01.319Z,87.80
2018-09-18T00:38:34.096Z,87.40
2018-09-18T00:41:06.269Z,87.40
2018-09-18T00:43:38.498Z,88.10
2018-09-18T00:46:11.474Z,88.30
2018-09-18T00:48:43.400Z,87.90
2018-09-18T00:51:15.514Z,87.90
2018-09-18T00:53:47.766Z,87.60
2018-09-18T00:56:19.369Z,87.10
2018-09-18T00:58:51.491Z,87.80
2018-09-18T01:01:23.193Z,86.70
2018-09-18T01:03:55.208Z,87.50
2018-09-18T01:06:27.203Z,87.30
2018-09-18T01:08:59.139Z,87.60
2018-09-18T01:11:30.947Z,87.40
2018-09-18T01:14:03.648Z,87.60
2018-09-18T01:16:35.673Z,87.80
2018-09-18T01:19:07.571Z,87.60
2018-09-18T01:21:39.598Z,87.60
2018-09-18T01:24:11.189Z,87.70
2018-09-18T01:26:43.039Z,87.10
2018-09-18T01:29:14.796Z,87.50
2018-09-18T01:31:46.850Z,86.90
2018-09-18T01:34:18.802Z,87.60
2018-09-18T01:36:50.929Z,87.70
2018-09-18T01:39:22.927Z,88.50
2018-09-18T01:41:55.593Z,89.20
2018-09-18T01:44:27.378Z,88.30
2018-09-18T01:46:59.625Z,88.60
2018-09-18T01:49:31.474Z,88.10
2018-09-18T01:52:02.979Z,88.40
2018-09-18T01:54:34.616Z,88.10
2018-09-18T01:57:08.063Z,88.60
2018-09-18T01:59:40.661Z,88.40
2018-09-18T02:02:13.090Z,88.20
2018-09-18T02:04:44.818Z,88.50
2018-09-18T02:07:16.592Z,88.90
2018-09-18T02:09:48.566Z,88.70
2018-09-18T02:12:20.781Z,88.90
2018-09-18T02:14:52.915Z,89.00
2018-09-18T02:17:25.517Z,88.80
2018-09-18T02:19:57.254Z,88.30
2018-09-18T02:22:29.053Z,87.80
2018-09-18T02:25:00.909Z,87.90
2018-09-18T02:27:32.832Z,88.30
2018-09-18T02:30:05.263Z,87.90
2018-09-18T02:32:37.454Z,88.40
2018-09-18T02:35:09.431Z,89.20
2018-09-18T02:37:45.420Z,89.10
2018-09-18T02:40:17.391Z,89.30
2018-09-18T02:42:49.320Z,88.80
2018-09-18T02:45:21.636Z,89.30
2018-09-18T02:47:54.078Z,88.50
2018-09-18T02:50:26.180Z,88.60
2018-09-18T02:52:57.853Z,89.20
2018-09-18T02:55:29.571Z,88.70
2018-09-18T02:58:02.240Z,88.90
2018-09-18T03:00:34.569Z,88.70
2018-09-18T03:03:06.387Z,88.70
2018-09-18T03:05:38.300Z,89.40
2018-09-18T03:08:10.191Z,89.20
2018-09-18T03:10:42.123Z,89.50
2018-09-18T03:13:14.631Z,89.10
2018-09-18T03:15:46.410Z,88.70
2018-09-18T03:18:18.112Z,88.70
2018-09-18T03:20:50.178Z,88.20
2018-09-18T03:23:22.185Z,88.80
2018-09-18T03:25:54.766Z,88.50
2018-09-18T03:28:27.004Z,89.00
2018-09-18T03:30:59.662Z,89.00
2018-09-18T03:33:31.614Z,88.90
2018-09-18T03:36:03.680Z,88.80
2018-09-18T03:38:35.944Z,89.20
2018-09-18T03:41:07.796Z,89.10
2018-09-18T03:43:40.074Z,89.40
2018-09-18T03:46:12.228Z,89.60
2018-09-18T03:48:45.530Z,89.60
2018-09-18T03:51:17.936Z,89.60
2018-09-18T03:53:50.284Z,90.00
2018-09-18T03:56:23.238Z,89.60
2018-09-18T03:58:55.577Z,89.60
2018-09-18T04:01:27.962Z,89.80
2018-09-18T04:03:59.934Z,89.60
2018-09-18T04:06:32.210Z,89.00
2018-09-18T04:09:05.184Z,89.40
2018-09-18T04:11:37.603Z,89.20
2018-09-18T04:14:09.662Z,88.60
2018-09-18T04:16:41.850Z,89.30
2018-09-18T04:19:13.941Z,89.20
2018-09-18T04:21:46.308Z,89.30
2018-09-18T04:24:18.450Z,89.20
2018-09-18T04:26:50.636Z,89.20
2018-09-18T04:29:22.975Z,89.30
2018-09-18T04:31:55.791Z,90.00
2018-09-18T04:34:28.006Z,89.30
2018-09-18T04:37:00.352Z,89.00
2018-09-18T04:39:32.696Z,88.80
2018-09-18T04:42:04.906Z,89.00
2018-09-18T04:44:37.051Z,89.20
2018-09-18T04:47:09.144Z,89.30
2018-09-18T04:49:41.370Z,89.70
2018-09-18T04:52:13.394Z,89.80
2018-09-18T04:54:45.113Z,89.50
2018-09-18T04:57:17.332Z,89.50
2018-09-18T04:59:49.660Z,89.50
2018-09-18T05:02:21.525Z,89.40
2018-09-18T05:04:53.794Z,89.20
2018-09-18T05:07:25.843Z,89.50
2018-09-18T05:09:58.669Z,89.60
2018-09-18T05:12:30.641Z,89.00
2018-09-18T05:15:08.353Z,89.70
2018-09-18T05:17:46.628Z,88.90
2018-09-18T05:20:18.885Z,88.60
2018-09-18T05:22:51.099Z,88.50
2018-09-18T05:25:23.547Z,88.20
2018-09-18T05:27:55.597Z,88.00
2018-09-18T05:30:27.606Z,87.80
2018-09-18T05:32:59.570Z,87.80
2018-09-18T05:35:31.681Z,87.80
2018-09-18T05:38:03.506Z,87.50
2018-09-18T05:40:35.369Z,86.80
2018-09-18T05:43:07.572Z,86.40
2018-09-18T05:45:39.430Z,85.90
2018-09-18T05:48:13.995Z,85.40
2018-09-18T05:50:46.235Z,84.40
2018-09-18T05:53:18.756Z,83.80
2018-09-18T05:55:50.838Z,83.30
2018-09-18T05:58:22.864Z,81.60
2018-09-18T06:00:54.941Z,79.90
2018-09-18T06:03:27.245Z,78.40
2018-09-18T06:05:59.284Z,77.90
2018-09-18T06:08:31.150Z,75.80
2018-09-18T06:11:03.515Z,75.40
2018-09-18T06:13:35.556Z,73.60
2018-09-18T06:16:07.898Z,74.50
2018-09-18T06:18:40.051Z,73.00
2018-09-18T06:21:12.173Z,72.80
2018-09-18T06:23:44.564Z,71.70
2018-09-18T06:26:16.815Z,71.80
2018-09-18T06:28:49.099Z,70.60
2018-09-18T06:31:21.287Z,70.40
2018-09-18T06:33:54.037Z,71.60
2018-09-18T06:36:26.593Z,70.10
2018-09-18T06:38:58.652Z,69.90
2018-09-18T06:41:30.523Z,69.10
2018-09-18T06:44:02.919Z,69.10
2018-09-18T06:46:36.043Z,69.10
2018-09-18T06:49:08.178Z,68.50
2018-09-18T06:51:40.383Z,68.10
2018-09-18T06:54:12.264Z,67.50
2018-09-18T06:56:44.029Z,66.40
2018-09-18T06:59:16.087Z,66.70
2018-09-18T07:01:49.121Z,66.40
2018-09-18T07:04:20.893Z,65.10
2018-09-18T07:06:52.946Z,65.30
2018-09-18T07:09:25.656Z,65.20
2018-09-18T07:11:57.835Z,65.10
2018-09-18T07:14:29.708Z,62.60
2018-09-18T07:17:03.210Z,62.80
2018-09-18T07:19:35.459Z,62.50
2018-09-18T07:22:09.207Z,61.70
2018-09-18T07:24:41.216Z,61.70
2018-09-18T07:27:13.849Z,61.20
2018-09-18T07:29:45.785Z,60.40
2018-09-18T07:32:17.839Z,60.70
2018-09-18T07:34:49.808Z,61.20
2018-09-18T07:37:22.557Z,61.10
2018-09-18T07:39:55.309Z,61.30
2018-09-18T07:42:27.378Z,61.00
2018-09-18T07:44:59.573Z,59.40
2018-09-18T07:47:31.500Z,59.00
2018-09-18T07:50:03.752Z,59.30
2018-09-18T07:52:35.721Z,59.40
2018-09-18T07:55:07.759Z,59.30
2018-09-18T07:57:40.157Z,59.60
2018-09-18T08:00:12.659Z,60.00
2018-09-18T08:02:44.960Z,58.20
2018-09-18T08:05:16.958Z,58.90
2018-09-18T08:07:49.209Z,58.30
2018-09-18T08:10:21.309Z,57.90
2018-09-18T08:12:53.466Z,58.10
2018-09-18T08:15:25.420Z,56.40
2018-09-18T08:17:57.430Z,55.90
2018-09-18T08:20:29.524Z,55.50
2018-09-18T08:23:01.854Z,56.50
2018-09-18T08:25:34.301Z,57.30
2018-09-18T08:28:06.783Z,56.40
2018-09-18T08:30:39.079Z,54.60
2018-09-18T08:33:11.510Z,54.50
2018-09-18T08:35:43.719Z,53.90
2018-09-18T08:38:16.731Z,54.10
2018-09-18T08:40:48.855Z,52.00
2018-09-18T08:43:20.938Z,51.80
2018-09-18T08:45:53.448Z,51.60
2018-09-18T08:48:32.404Z,51.50
2018-09-18T08:51:04.929Z,51.10
2018-09-18T08:53:37.142Z,50.80
2018-09-18T08:56:10.259Z,51.00
2018-09-18T08:58:42.475Z,50.40
2018-09-18T09:01:14.817Z,50.60
2018-09-18T09:03:46.844Z,49.60
2018-09-18T09:06:18.976Z,49.60
2018-09-18T09:08:51.440Z,50.10
2018-09-18T09:11:23.640Z,50.40
2018-09-18T09:13:56.050Z,49.60
2018-09-18T09:16:28.592Z,49.30
2018-09-18T09:19:00.798Z,50.40
2018-09-18T09:21:33.286Z,50.70
2018-09-18T09:24:06.387Z,49.70
2018-09-18T09:26:38.705Z,49.20
2018-09-18T09:29:11.217Z,48.80
2018-09-18T09:31:43.238Z,50.00
2018-09-18T09:34:15.585Z,49.00
2018-09-18T09:36:47.731Z,48.60
2018-09-18T09:39:20.296Z,49.10
2018-09-18T09:41:52.432Z,48.80
2018-09-18T09:44:24.995Z,48.30
2018-09-18T09:46:56.955Z,48.90
2018-09-18T09:49:29.300Z,48.60
2018-09-18T09:52:01.584Z,47.80
2018-09-18T09:54:33.675Z,47.80
2018-09-18T09:57:06.094Z,47.20
2018-09-18T09:59:39.043Z,47.50
2018-09-18T10:02:19.438Z,47.50
2018-09-18T10:04:51.556Z,46.50
2018-09-18T10:07:23.942Z,45.60
2018-09-18T10:09:56.444Z,45.30
2018-09-18T10:12:28.665Z,45.60
2018-09-18T10:15:01.960Z,46.80
2018-09-18T10:17:34.083Z,47.20
2018-09-18T10:20:06.843Z,48.00
2018-09-18T10:22:39.479Z,46.60
2018-09-18T10:25:12.099Z,45.40
2018-09-18T10:27:44.633Z,45.70
2018-09-18T10:30:17.255Z,46.10
2018-09-18T10:32:50.225Z,45.40
2018-09-18T10:35:22.469Z,45.30
2018-09-18T10:37:54.572Z,45.40
2018-09-18T10:40:27.058Z,45.90
2018-09-18T10:42:59.297Z,45.10
2018-09-18T10:45:31.643Z,43.00
2018-09-18T10:48:04.622Z,42.60
2018-09-18T10:50:36.825Z,42.80
2018-09-18T10:53:09.812Z,43.20
2018-09-18T10:55:42.357Z,45.00
2018-09-18T10:58:15.248Z,42.80
2018-09-18T11:00:48.560Z,42.70
2018-09-18T11:03:21.006Z,43.30
2018-09-18T11:05:53.595Z,44.00
2018-09-18T11:08:26.216Z,42.50
2018-09-18T11:10:58.612Z,43.00
2018-09-18T11:13:31.092Z,41.80
2018-09-18T11:16:03.366Z,41.70
2018-09-18T11:18:35.458Z,40.30
2018-09-18T11:21:07.720Z,39.80
2018-09-18T11:23:40.604Z,39.00
2018-09-18T11:26:12.863Z,39.60
2018-09-18T11:28:45.261Z,40.90
2018-09-18T11:31:17.784Z,39.50
2018-09-18T11:33:50.450Z,34.40
2018-09-18T11:36:22.692Z,37.30
2018-09-18T11:38:55.327Z,38.30
2018-09-18T11:41:28.110Z,38.60
2018-09-18T11:44:00.846Z,37.70
2018-09-18T11:46:33.566Z,37.30
2018-09-18T11:49:06.750Z,37.90
2018-09-18T11:51:39.328Z,37.10
2018-09-18T11:54:11.949Z,37.30
2018-09-18T11:56:44.520Z,36.90
2018-09-18T11:59:17.760Z,37.40
2018-09-18T12:01:49.906Z,37.00
2018-09-18T12:04:22.060Z,37.50
2018-09-18T12:06:54.568Z,36.00
2018-09-18T12:09:26.848Z,36.20
2018-09-18T12:11:59.655Z,35.50
2018-09-18T12:14:32.471Z,35.90
2018-09-18T12:17:05.150Z,34.60
2018-09-18T12:19:38.108Z,34.80
2018-09-18T12:22:10.515Z,35.10
2018-09-18T12:24:43.200Z,34.60
2018-09-18T12:27:15.696Z,33.50
2018-09-18T12:29:48.180Z,33.30
2018-09-18T12:32:21.105Z,34.20
2018-09-18T12:34:53.592Z,33.60
2018-09-18T12:37:26.088Z,33.20
2018-09-18T12:39:58.636Z,32.70
2018-09-18T12:42:31.033Z,32.30
2018-09-18T12:45:03.515Z,32.00
2018-09-18T12:47:35.740Z,32.50
2018-09-18T12:50:08.733Z,33.70
2018-09-18T12:52:41.348Z,34.00
2018-09-18T12:55:13.949Z,34.80
2018-09-18T12:57:46.524Z,35.50
2018-09-18T13:00:19.938Z,35.50
2018-09-18T13:02:52.282Z,36.40
2018-09-18T13:05:24.501Z,34.60
2018-09-18T13:07:58.237Z,36.30
2018-09-18T13:10:30.442Z,35.50
2018-09-18T13:13:02.893Z,35.60
2018-09-18T13:15:35.310Z,35.40
2018-09-18T13:18:08.081Z,36.00
2018-09-18T13:20:41.087Z,36.70
2018-09-18T13:23:13.669Z,36.60
2018-09-18T13:25:46.026Z,37.50
2018-09-18T13:28:18.399Z,36.50
2018-09-18T13:30:50.980Z,36.30
2018-09-18T13:33:23.627Z,36.50
2018-09-18T13:35:56.241Z,36.10
2018-09-18T13:38:29.076Z,35.80
2018-09-18T13:41:01.575Z,36.30
2018-09-18T13:43:33.891Z,36.10
2018-09-18T13:46:06.373Z,36.70
2018-09-18T13:48:39.885Z,36.30
2018-09-18T13:51:12.647Z,35.90
2018-09-18T13:53:45.238Z,36.40
2018-09-18T13:56:17.506Z,37.10
2018-09-18T13:58:50.182Z,39.90
2018-09-18T14:01:22.560Z,40.40
2018-09-18T14:03:54.872Z,39.60
2018-09-18T14:06:28.740Z,39.80
2018-09-18T14:09:01.173Z,40.70
2018-09-18T14:11:34.338Z,40.20
2018-09-18T14:14:06.978Z,39.60
2018-09-18T14:16:39.423Z,39.80
2018-09-18T14:19:11.956Z,40.10
2018-09-18T14:21:44.612Z,40.10
2018-09-18T14:24:16.832Z,40.40
2018-09-18T14:26:49.472Z,40.00
2018-09-18T14:29:22.723Z,40.60
2018-09-18T14:31:54.796Z,40.30
2018-09-18T14:34:27.163Z,40.30
2018-09-18T14:36:59.577Z,40.90
2018-09-18T14:39:32.145Z,40.20
2018-09-18T14:42:04.492Z,40.50
2018-09-18T14:44:36.652Z,39.60
2018-09-18T14:47:09.537Z,39.70
2018-09-18T14:49:41.789Z,40.40
2018-09-18T14:52:13.798Z,40.00
2018-09-18T14:54:46.048Z,40.30
2018-09-18T14:57:18.503Z,40.50
2018-09-18T14:59:51.230Z,40.10
2018-09-18T15:02:23.504Z,40.40
2018-09-18T15:04:55.734Z,40.70
2018-09-18T15:07:27.843Z,40.60
2018-09-18T15:10:00.103Z,40.70
2018-09-18T15:12:32.134Z,40.10
2018-09-18T15:15:04.323Z,40.40
2018-09-18T15:17:37.511Z,41.00
2018-09-18T15:20:09.905Z,42.00
2018-09-18T15:22:42.141Z,42.10
2018-09-18T15:25:15.222Z,41.90
2018-09-18T15:27:47.874Z,42.50
2018-09-18T15:30:20.302Z,42.40
2018-09-18T15:32:52.725Z,43.20
2018-09-18T15:35:24.996Z,43.30
2018-09-18T15:37:57.748Z,43.80
2018-09-18T15:40:30.319Z,44.40
2018-09-18T15:43:04.060Z,44.60
2018-09-18T15:45:36.146Z,44.70
2018-09-18T15:48:09.294Z,45.30
2018-09-18T15:50:43.794Z,45.70
2018-09-18T15:53:16.122Z,46.00
2018-09-18T15:55:48.938Z,46.80
2018-09-18T15:58:21.302Z,47.40
2018-09-18T16:00:53.655Z,47.40
2018-09-18T16:03:25.428Z,47.50
2018-09-18T16:05:57.865Z,47.70
2018-09-18T16:08:30.128Z,48.10
2018-09-18T16:11:03.122Z,48.30
2018-09-18T16:13:35.920Z,49.20
2018-09-18T16:16:08.658Z,49.00
2018-09-18T16:18:41.656Z,49.30
2018-09-18T16:21:14.021Z,50.40
2018-09-18T16:23:46.386Z,49.90
2018-09-18T16:26:19.031Z,50.50
2018-09-18T16:28:51.815Z,50.80
2018-09-18T16:31:25.024Z,51.30
2018-09-18T16:33:57.799Z,51.60
2018-09-18T16:36:31.201Z,51.80
2018-09-18T16:39:03.139Z,52.70
2018-09-18T16:41:36.723Z,52.50
2018-09-18T16:44:09.577Z,52.70
2018-09-18T16:46:41.741Z,52.90
2018-09-18T16:49:13.845Z,53.20
2018-09-18T16:51:46.745Z,53.50
2018-09-18T16:54:19.220Z,53.80
2018-09-18T16:56:51.540Z,54.10
2018-09-18T16:59:24.127Z,54.80
2018-09-18T17:01:57.485Z,55.50
2018-09-18T17:04:29.815Z,56.40
2018-09-18T17:07:02.263Z,56.60
2018-09-18T17:09:35.114Z,56.40
2018-09-18T17:12:07.061Z,56.20
2018-09-18T17:14:39.597Z,56.30
2018-09-18T17:17:11.898Z,56.30
2018-09-18T17:19:44.513Z,56.40
2018-09-18T17:22:16.878Z,56.60
2018-09-18T17:24:49.881Z,56.90
2018-09-18T17:27:22.773Z,57.00
2018-09-18T17:29:54.656Z,57.50
2018-09-18T17:32:27.335Z,58.10
2018-09-18T17:35:00.755Z,58.30
2018-09-18T17:37:34.360Z,58.40
2018-09-18T17:40:07.289Z,58.30
2018-09-18T17:42:40.104Z,58.60
2018-09-18T17:45:12.945Z,59.00
2018-09-18T17:47:46.463Z,59.20
2018-09-18T17:50:19.133Z,59.50
2018-09-18T17:52:51.688Z,60.20
2018-09-18T17:55:25.127Z,60.80
2018-09-18T17:57:58.287Z,61.30
2018-09-18T18:00:30.666Z,61.60
2018-09-18T18:03:02.983Z,61.60
2018-09-18T18:05:36.027Z,61.90
2018-09-18T18:08:08.613Z,62.30
2018-09-18T18:10:41.380Z,62.80
2018-09-18T18:13:13.983Z,63.60
2018-09-18T18:15:46.872Z,63.80
2018-09-18T18:18:19.230Z,64.80
2018-09-18T18:20:52.471Z,64.60
2018-09-18T18:23:24.979Z,64.90
2018-09-18T18:25:58.071Z,65.50
2018-09-18T18:28:32.209Z,65.70
2018-09-18T18:31:05.901Z,66.70
2018-09-18T18:33:38.708Z,66.30
2018-09-18T18:36:11.371Z,66.40
2018-09-18T18:38:44.724Z,66.70
2018-09-18T18:41:17.816Z,67.00
2018-09-18T18:43:50.579Z,67.20
2018-09-18T18:46:24.158Z,67.30
2018-09-18T18:48:57.415Z,67.80
2018-09-18T18:51:30.876Z,68.10
2018-09-18T18:54:04.445Z,68.10
2018-09-18T18:56:37.117Z,68.30
2018-09-18T18:59:09.512Z,68.50
2018-09-18T19:01:42.477Z,68.80
2018-09-18T19:04:15.725Z,69.10
2018-09-18T19:06:49.315Z,69.20
2018-09-18T19:09:22.479Z,69.40
2018-09-18T19:11:55.957Z,69.70
2018-09-18T19:14:28.898Z,69.90
2018-09-18T19:17:01.456Z,70.00
2018-09-18T19:19:35.036Z,70.30
2018-09-18T19:22:07.652Z,70.40
2018-09-18T19:24:40.161Z,70.70
2018-09-18T19:27:14.201Z,70.90
2018-09-18T19:29:47.852Z,71.60
2018-09-18T19:32:21.489Z,72.20
2018-09-18T19:34:54.331Z,72.40
2018-09-18T19:37:26.870Z,72.60
2018-09-18T19:40:00.141Z,72.90
2018-09-18T19:42:32.975Z,73.10
2018-09-18T19:45:06.242Z,73.10
2018-09-18T19:47:38.557Z,73.20
2018-09-18T19:50:17.622Z,73.00
2018-09-18T19:52:50.655Z,73.10
2018-09-18T19:55:24.698Z,73.40
2018-09-18T19:57:57.646Z,73.90
2018-09-18T20:00:31.298Z,74.20
2018-09-18T20:03:03.746Z,74.60
2018-09-18T20:05:36.727Z,75.00
2018-09-18T20:08:10.237Z,75.70
2018-09-18T20:10:44.663Z,76.10
2018-09-18T20:13:17.744Z,76.90
2018-09-18T20:15:50.216Z,77.50
2018-09-18T20:18:22.614Z,77.60
2018-09-18T20:20:55.732Z,78.00
2018-09-18T20:23:28.253Z,78.00
2018-09-18T20:26:00.913Z,78.20
2018-09-18T20:28:33.751Z,78.40
2018-09-18T20:31:06.859Z,78.50
2018-09-18T20:33:40.869Z,78.70
2018-09-18T20:36:15.501Z,79.30
2018-09-18T20:38:48.744Z,79.60
2018-09-18T20:41:21.621Z,79.00
2018-09-18T20:43:55.196Z,80.00
2018-09-18T20:46:28.162Z,79.90
2018-09-18T20:49:01.223Z,79.70
2018-09-18T20:51:34.729Z,80.40
2018-09-18T20:54:07.324Z,80.20
2018-09-18T20:56:40.263Z,80.00
2018-09-18T20:59:13.281Z,80.10
2018-09-18T21:01:46.396Z,80.80
2018-09-18T21:04:19.120Z,80.60
2018-09-18T21:06:51.649Z,81.20
2018-09-18T21:09:23.851Z,81.50
2018-09-18T21:11:56.118Z,81.60
2018-09-18T21:14:28.115Z,81.20
2018-09-18T21:17:00.802Z,81.20
2018-09-18T21:19:33.348Z,81.40
2018-09-18T21:22:05.955Z,81.40
2018-09-18T21:24:38.821Z,81.80
2018-09-18T21:27:11.094Z,81.90
2018-09-18T21:29:44.667Z,82.10
2018-09-18T21:32:17.340Z,81.80
2018-09-18T21:34:49.663Z,81.70
2018-09-18T21:37:23.277Z,81.70
2018-09-18T21:39:55.748Z,81.50
2018-09-18T21:42:28.358Z,81.80
2018-09-18T21:45:00.372Z,81.90
2018-09-18T21:47:32.913Z,82.70
2018-09-18T21:50:04.973Z,82.70
2018-09-18T21:52:37.577Z,83.00
2018-09-18T21:55:11.375Z,83.80
2018-09-18T21:57:43.656Z,84.10
2018-09-18T22:00:16.477Z,85.10
2018-09-18T22:02:48.783Z,84.50
2018-09-18T22:05:21.105Z,83.50
2018-09-18T22:07:53.471Z,83.20
2018-09-18T22:10:26.575Z,83.20
2018-09-18T22:13:00.731Z,83.40
2018-09-18T22:15:33.589Z,83.60
2018-09-18T22:18:05.793Z,84.40
2018-09-18T22:20:38.270Z,84.20
2018-09-18T22:23:10.523Z,84.10
2018-09-18T22:25:42.571Z,84.10
2018-09-18T22:28:14.923Z,84.00
2018-09-18T22:30:47.279Z,83.80
2018-09-18T22:33:19.770Z,83.40
2018-09-18T22:35:52.202Z,82.80
2018-09-18T22:38:24.772Z,83.10
2018-09-18T22:40:57.123Z,82.80
2018-09-18T22:43:29.207Z,82.30
2018-09-18T22:46:01.388Z,82.50
2018-09-18T22:48:33.719Z,82.90
2018-09-18T22:51:06.101Z,83.20
2018-09-18T22:53:38.323Z,83.20
2018-09-18T22:56:10.403Z,83.40
2018-09-18T22:58:42.602Z,83.90
2018-09-18T23:01:14.800Z,84.00
2018-09-18T23:03:47.362Z,83.90
2018-09-18T23:06:19.770Z,84.30
2018-09-18T23:08:52.310Z,84.40
2018-09-18T23:11:24.786Z,84.40
2018-09-18T23:13:57.675Z,84.50
2018-09-18T23:16:29.608Z,84.60
2018-09-18T23:19:02.100Z,84.70
2018-09-18T23:21:34.527Z,84.90
2018-09-18T23:24:07.026Z,84.20
2018-09-18T23:26:39.850Z,83.80
2018-09-18T23:29:12.118Z,83.50
2018-09-18T23:31:44.202Z,83.70
2018-09-18T23:34:16.888Z,83.60
2018-09-18T23:36:49.011Z,84.20
2018-09-18T23:39:21.293Z,83.90
2018-09-18T23:41:53.835Z,83.50
2018-09-18T23:44:26.199Z,83.60
2018-09-18T23:46:58.511Z,83.40
2018-09-18T23:49:31.768Z,83.30
2018-09-18T23:52:04.210Z,83.20
2018-09-18T23:54:36.469Z,83.10
2018-09-18T23:57:08.771Z,83.30
2018-09-18T23:59:41.659Z,83.90
